sensor_id;sensor_type;location;lat;lon;timestamp;P1;durP1;ratioP1;P2;durP2;ratioP2
58946;SDS011;44724;52.332;4.978;2022-09-09T00:00:49;3.90;;;1.65;;
58946;SDS011;44724;52.332;4.978;2022-09-09T00:03:27;2.13;;;1.60;;
58946;SDS011;44724;52.332;4.978;2022-09-09T00:06:03;3.60;;;2.15;;
58946;SDS011;44724;52.332;4.978;2022-09-09T00:08:45;3.38;;;1.98;;
58946;SDS011;44724;52.332;4.978;2022-09-09T00:11:24;3.80;;;2.05;;
58946;SDS011;44724;52.332;4.978;2022-09-09T00:13:54;2.83;;;1.92;;
58946;SDS011;44724;52.332;4.978;2022-09-09T00:16:23;2.28;;;2.08;;
58946;SDS011;44724;52.332;4.978;2022-09-09T00:24:27;2.40;;;2.03;;
58946;SDS011;44724;52.332;4.978;2022-09-09T00:27:58;5.32;;;2.80;;
58946;SDS011;44724;52.332;4.978;2022-09-09T00:30:13;4.38;;;2.50;;
58946;SDS011;44724;52.332;4.978;2022-09-09T00:32:49;4.53;;;3.08;;
58946;SDS011;44724;52.332;4.978;2022-09-09T00:35:29;3.97;;;2.30;;
58946;SDS011;44724;52.332;4.978;2022-09-09T00:38:18;4.95;;;3.13;;
58946;SDS011;44724;52.332;4.978;2022-09-09T00:43:53;4.82;;;2.83;;
58946;SDS011;44724;52.332;4.978;2022-09-09T00:46:33;5.53;;;3.70;;
58946;SDS011;44724;52.332;4.978;2022-09-09T01:02:58;5.80;;;4.13;;
58946;SDS011;44724;52.332;4.978;2022-09-09T01:05:15;6.90;;;4.70;;
58946;SDS011;44724;52.332;4.978;2022-09-09T01:07:57;7.07;;;4.35;;
58946;SDS011;44724;52.332;4.978;2022-09-09T01:13:25;6.57;;;5.15;;
58946;SDS011;44724;52.332;4.978;2022-09-09T01:15:59;9.02;;;5.78;;
58946;SDS011;44724;52.332;4.978;2022-09-09T01:18:31;8.85;;;5.43;;
58946;SDS011;44724;52.332;4.978;2022-09-09T01:21:08;7.70;;;4.68;;
58946;SDS011;44724;52.332;4.978;2022-09-09T01:23:58;7.60;;;5.27;;
58946;SDS011;44724;52.332;4.978;2022-09-09T01:26:37;7.15;;;5.18;;
58946;SDS011;44724;52.332;4.978;2022-09-09T01:29:12;7.05;;;5.00;;
58946;SDS011;44724;52.332;4.978;2022-09-09T01:31:42;7.50;;;5.68;;
58946;SDS011;44724;52.332;4.978;2022-09-09T01:34:18;10.10;;;5.05;;
58946;SDS011;44724;52.332;4.978;2022-09-09T01:36:46;6.97;;;4.95;;
58946;SDS011;44724;52.332;4.978;2022-09-09T01:39:17;7.78;;;5.13;;
58946;SDS011;44724;52.332;4.978;2022-09-09T01:41:47;9.18;;;5.60;;
58946;SDS011;44724;52.332;4.978;2022-09-09T01:44:15;8.43;;;6.13;;
58946;SDS011;44724;52.332;4.978;2022-09-09T01:46:43;9.20;;;5.28;;
58946;SDS011;44724;52.332;4.978;2022-09-09T01:49:15;6.13;;;5.30;;
58946;SDS011;44724;52.332;4.978;2022-09-09T01:51:42;6.93;;;5.85;;
58946;SDS011;44724;52.332;4.978;2022-09-09T01:54:11;12.07;;;6.32;;
58946;SDS011;44724;52.332;4.978;2022-09-09T01:56:47;7.45;;;5.75;;
58946;SDS011;44724;52.332;4.978;2022-09-09T01:59:24;8.27;;;5.47;;
58946;SDS011;44724;52.332;4.978;2022-09-09T02:08:15;8.93;;;5.97;;
58946;SDS011;44724;52.332;4.978;2022-09-09T02:11:13;8.85;;;5.57;;
58946;SDS011;44724;52.332;4.978;2022-09-09T02:13:50;8.73;;;6.13;;
58946;SDS011;44724;52.332;4.978;2022-09-09T02:19:11;6.60;;;5.90;;
58946;SDS011;44724;52.332;4.978;2022-09-09T02:22:01;7.75;;;5.70;;
58946;SDS011;44724;52.332;4.978;2022-09-09T02:24:33;7.13;;;5.38;;
58946;SDS011;44724;52.332;4.978;2022-09-09T02:27:11;7.63;;;5.03;;
58946;SDS011;44724;52.332;4.978;2022-09-09T02:29:40;9.25;;;5.90;;
58946;SDS011;44724;52.332;4.978;2022-09-09T02:32:09;6.57;;;5.28;;
58946;SDS011;44724;52.332;4.978;2022-09-09T02:34:54;7.50;;;5.65;;
58946;SDS011;44724;52.332;4.978;2022-09-09T02:37:25;7.40;;;5.30;;
58946;SDS011;44724;52.332;4.978;2022-09-09T02:39:57;11.30;;;5.40;;
58946;SDS011;44724;52.332;4.978;2022-09-09T02:42:23;8.35;;;5.68;;
58946;SDS011;44724;52.332;4.978;2022-09-09T02:44:50;9.30;;;5.75;;
58946;SDS011;44724;52.332;4.978;2022-09-09T02:52:59;6.57;;;4.60;;
58946;SDS011;44724;52.332;4.978;2022-09-09T02:58:02;7.63;;;5.20;;
58946;SDS011;44724;52.332;4.978;2022-09-09T03:00:32;8.38;;;5.85;;
58946;SDS011;44724;52.332;4.978;2022-09-09T03:03:00;9.60;;;5.57;;
58946;SDS011;44724;52.332;4.978;2022-09-09T03:05:25;8.93;;;6.07;;
58946;SDS011;44724;52.332;4.978;2022-09-09T03:07:51;7.47;;;5.60;;
58946;SDS011;44724;52.332;4.978;2022-09-09T03:10:19;8.35;;;5.95;;
58946;SDS011;44724;52.332;4.978;2022-09-09T03:12:46;9.43;;;6.03;;
58946;SDS011;44724;52.332;4.978;2022-09-09T03:15:12;7.72;;;5.65;;
58946;SDS011;44724;52.332;4.978;2022-09-09T03:17:38;11.15;;;6.30;;
58946;SDS011;44724;52.332;4.978;2022-09-09T03:20:07;11.30;;;6.43;;
58946;SDS011;44724;52.332;4.978;2022-09-09T03:22:35;11.50;;;6.00;;
58946;SDS011;44724;52.332;4.978;2022-09-09T03:25:01;10.65;;;6.25;;
58946;SDS011;44724;52.332;4.978;2022-09-09T03:27:33;9.18;;;6.10;;
58946;SDS011;44724;52.332;4.978;2022-09-09T03:29:59;8.45;;;6.05;;
58946;SDS011;44724;52.332;4.978;2022-09-09T03:32:29;11.15;;;6.38;;
58946;SDS011;44724;52.332;4.978;2022-09-09T03:34:55;11.07;;;6.68;;
58946;SDS011;44724;52.332;4.978;2022-09-09T03:37:21;8.75;;;6.35;;
58946;SDS011;44724;52.332;4.978;2022-09-09T03:39:49;10.70;;;6.72;;
58946;SDS011;44724;52.332;4.978;2022-09-09T03:42:15;10.52;;;6.85;;
58946;SDS011;44724;52.332;4.978;2022-09-09T03:44:45;11.05;;;7.00;;
58946;SDS011;44724;52.332;4.978;2022-09-09T03:47:21;10.98;;;6.55;;
58946;SDS011;44724;52.332;4.978;2022-09-09T03:49:58;11.32;;;7.00;;
58946;SDS011;44724;52.332;4.978;2022-09-09T03:52:24;11.27;;;6.55;;
58946;SDS011;44724;52.332;4.978;2022-09-09T03:54:52;12.70;;;6.93;;
58946;SDS011;44724;52.332;4.978;2022-09-09T03:57:19;11.23;;;6.70;;
58946;SDS011;44724;52.332;4.978;2022-09-09T03:59:44;8.55;;;6.28;;
58946;SDS011;44724;52.332;4.978;2022-09-09T04:02:10;9.80;;;6.35;;
58946;SDS011;44724;52.332;4.978;2022-09-09T04:04:35;11.38;;;7.05;;
58946;SDS011;44724;52.332;4.978;2022-09-09T04:07:01;13.43;;;6.65;;
58946;SDS011;44724;52.332;4.978;2022-09-09T04:09:27;9.75;;;6.88;;
58946;SDS011;44724;52.332;4.978;2022-09-09T04:11:52;11.20;;;7.00;;
58946;SDS011;44724;52.332;4.978;2022-09-09T04:14:19;10.55;;;6.65;;
58946;SDS011;44724;52.332;4.978;2022-09-09T04:16:44;9.68;;;6.10;;
58946;SDS011;44724;52.332;4.978;2022-09-09T04:19:11;12.73;;;6.70;;
58946;SDS011;44724;52.332;4.978;2022-09-09T04:21:40;8.52;;;6.00;;
58946;SDS011;44724;52.332;4.978;2022-09-09T04:24:09;9.18;;;6.20;;
58946;SDS011;44724;52.332;4.978;2022-09-09T04:26:35;11.30;;;6.32;;
58946;SDS011;44724;52.332;4.978;2022-09-09T04:29:02;8.30;;;5.85;;
58946;SDS011;44724;52.332;4.978;2022-09-09T04:31:28;8.82;;;5.90;;
58946;SDS011;44724;52.332;4.978;2022-09-09T04:33:55;9.95;;;6.03;;
58946;SDS011;44724;52.332;4.978;2022-09-09T04:36:21;8.68;;;5.55;;
58946;SDS011;44724;52.332;4.978;2022-09-09T04:38:48;10.85;;;5.60;;
58946;SDS011;44724;52.332;4.978;2022-09-09T04:41:15;8.23;;;5.28;;
58946;SDS011;44724;52.332;4.978;2022-09-09T04:43:43;10.13;;;5.40;;
58946;SDS011;44724;52.332;4.978;2022-09-09T04:46:08;14.25;;;6.55;;
58946;SDS011;44724;52.332;4.978;2022-09-09T04:48:34;8.70;;;5.07;;
58946;SDS011;44724;52.332;4.978;2022-09-09T04:51:01;4.38;;;3.25;;
58946;SDS011;44724;52.332;4.978;2022-09-09T04:53:32;10.18;;;4.93;;
58946;SDS011;44724;52.332;4.978;2022-09-09T04:56:03;8.30;;;4.30;;
58946;SDS011;44724;52.332;4.978;2022-09-09T04:58:31;8.35;;;3.85;;
58946;SDS011;44724;52.332;4.978;2022-09-09T05:01:10;9.35;;;4.30;;
58946;SDS011;44724;52.332;4.978;2022-09-09T05:03:39;7.55;;;3.88;;
58946;SDS011;44724;52.332;4.978;2022-09-09T05:06:09;6.45;;;3.70;;
58946;SDS011;44724;52.332;4.978;2022-09-09T05:08:36;5.50;;;3.45;;
58946;SDS011;44724;52.332;4.978;2022-09-09T05:11:03;8.10;;;3.72;;
58946;SDS011;44724;52.332;4.978;2022-09-09T05:14:15;5.13;;;3.47;;
58946;SDS011;44724;52.332;4.978;2022-09-09T05:16:41;5.75;;;3.13;;
58946;SDS011;44724;52.332;4.978;2022-09-09T05:19:08;5.53;;;2.95;;
58946;SDS011;44724;52.332;4.978;2022-09-09T05:21:42;6.75;;;3.30;;
58946;SDS011;44724;52.332;4.978;2022-09-09T05:24:07;5.88;;;3.08;;
58946;SDS011;44724;52.332;4.978;2022-09-09T05:26:36;5.45;;;2.65;;
58946;SDS011;44724;52.332;4.978;2022-09-09T05:29:02;8.82;;;3.50;;
58946;SDS011;44724;52.332;4.978;2022-09-09T05:31:29;4.88;;;3.08;;
58946;SDS011;44724;52.332;4.978;2022-09-09T05:33:55;7.57;;;2.83;;
58946;SDS011;44724;52.332;4.978;2022-09-09T05:36:21;6.85;;;3.45;;
58946;SDS011;44724;52.332;4.978;2022-09-09T05:38:51;5.15;;;2.88;;
58946;SDS011;44724;52.332;4.978;2022-09-09T05:41:19;5.65;;;2.65;;
58946;SDS011;44724;52.332;4.978;2022-09-09T05:43:46;6.40;;;2.95;;
58946;SDS011;44724;52.332;4.978;2022-09-09T05:46:15;6.32;;;3.15;;
58946;SDS011;44724;52.332;4.978;2022-09-09T05:48:44;5.35;;;2.65;;
58946;SDS011;44724;52.332;4.978;2022-09-09T05:51:15;5.85;;;3.15;;
58946;SDS011;44724;52.332;4.978;2022-09-09T05:53:43;11.63;;;2.75;;
58946;SDS011;44724;52.332;4.978;2022-09-09T05:56:11;9.88;;;3.33;;
58946;SDS011;44724;52.332;4.978;2022-09-09T05:58:42;7.30;;;2.70;;
58946;SDS011;44724;52.332;4.978;2022-09-09T06:01:13;9.68;;;3.03;;
58946;SDS011;44724;52.332;4.978;2022-09-09T06:03:41;5.32;;;2.20;;
58946;SDS011;44724;52.332;4.978;2022-09-09T06:06:09;12.15;;;3.20;;
58946;SDS011;44724;52.332;4.978;2022-09-09T06:08:39;5.55;;;2.22;;
58946;SDS011;44724;52.332;4.978;2022-09-09T06:11:10;7.82;;;2.65;;
58946;SDS011;44724;52.332;4.978;2022-09-09T06:13:38;5.80;;;2.70;;
58946;SDS011;44724;52.332;4.978;2022-09-09T06:16:05;12.85;;;2.85;;
58946;SDS011;44724;52.332;4.978;2022-09-09T06:18:33;11.63;;;2.63;;
58946;SDS011;44724;52.332;4.978;2022-09-09T06:20:59;5.15;;;2.25;;
58946;SDS011;44724;52.332;4.978;2022-09-09T06:23:30;10.23;;;2.33;;
58946;SDS011;44724;52.332;4.978;2022-09-09T06:28:33;4.80;;;2.13;;
58946;SDS011;44724;52.332;4.978;2022-09-09T06:31:00;4.47;;;2.60;;
58946;SDS011;44724;52.332;4.978;2022-09-09T06:33:35;8.23;;;2.67;;
58946;SDS011;44724;52.332;4.978;2022-09-09T06:36:16;4.57;;;1.92;;
58946;SDS011;44724;52.332;4.978;2022-09-09T06:38:43;8.07;;;2.47;;
58946;SDS011;44724;52.332;4.978;2022-09-09T06:41:12;6.18;;;2.50;;
58946;SDS011;44724;52.332;4.978;2022-09-09T06:43:40;6.25;;;2.22;;
58946;SDS011;44724;52.332;4.978;2022-09-09T06:46:06;5.78;;;2.40;;
58946;SDS011;44724;52.332;4.978;2022-09-09T06:48:35;4.72;;;2.15;;
58946;SDS011;44724;52.332;4.978;2022-09-09T06:51:10;3.70;;;1.88;;
58946;SDS011;44724;52.332;4.978;2022-09-09T06:53:36;6.38;;;2.30;;
58946;SDS011;44724;52.332;4.978;2022-09-09T06:58:35;4.40;;;2.10;;
58946;SDS011;44724;52.332;4.978;2022-09-09T07:01:11;4.90;;;1.92;;
58946;SDS011;44724;52.332;4.978;2022-09-09T07:03:39;6.70;;;2.47;;
58946;SDS011;44724;52.332;4.978;2022-09-09T07:06:05;5.82;;;2.35;;
58946;SDS011;44724;52.332;4.978;2022-09-09T07:08:32;2.58;;;1.45;;
58946;SDS011;44724;52.332;4.978;2022-09-09T07:11:02;5.88;;;2.30;;
58946;SDS011;44724;52.332;4.978;2022-09-09T07:13:30;5.95;;;1.65;;
58946;SDS011;44724;52.332;4.978;2022-09-09T07:16:03;5.63;;;2.05;;
58946;SDS011;44724;52.332;4.978;2022-09-09T07:18:32;7.47;;;2.50;;
58946;SDS011;44724;52.332;4.978;2022-09-09T07:20:59;7.15;;;2.40;;
58946;SDS011;44724;52.332;4.978;2022-09-09T07:23:25;2.63;;;1.65;;
58946;SDS011;44724;52.332;4.978;2022-09-09T07:25:51;6.15;;;3.30;;
58946;SDS011;44724;52.332;4.978;2022-09-09T07:28:18;7.47;;;2.60;;
58946;SDS011;44724;52.332;4.978;2022-09-09T07:30:52;8.88;;;3.30;;
58946;SDS011;44724;52.332;4.978;2022-09-09T07:33:19;7.50;;;3.17;;
58946;SDS011;44724;52.332;4.978;2022-09-09T07:35:45;9.18;;;3.45;;
58946;SDS011;44724;52.332;4.978;2022-09-09T07:38:11;8.75;;;3.55;;
58946;SDS011;44724;52.332;4.978;2022-09-09T07:40:37;6.68;;;3.22;;
58946;SDS011;44724;52.332;4.978;2022-09-09T07:43:02;7.65;;;3.33;;
58946;SDS011;44724;52.332;4.978;2022-09-09T07:45:28;6.13;;;3.30;;
58946;SDS011;44724;52.332;4.978;2022-09-09T07:47:54;6.70;;;4.38;;
58946;SDS011;44724;52.332;4.978;2022-09-09T07:50:22;7.68;;;3.70;;
58946;SDS011;44724;52.332;4.978;2022-09-09T07:52:50;6.30;;;3.80;;
58946;SDS011;44724;52.332;4.978;2022-09-09T07:55:16;10.50;;;4.20;;
58946;SDS011;44724;52.332;4.978;2022-09-09T07:57:42;8.05;;;3.80;;
58946;SDS011;44724;52.332;4.978;2022-09-09T08:00:08;6.38;;;3.30;;
58946;SDS011;44724;52.332;4.978;2022-09-09T08:02:40;6.30;;;3.20;;
58946;SDS011;44724;52.332;4.978;2022-09-09T08:05:07;10.13;;;3.80;;
58946;SDS011;44724;52.332;4.978;2022-09-09T08:07:34;13.00;;;5.32;;
58946;SDS011;44724;52.332;4.978;2022-09-09T08:09:59;8.25;;;4.28;;
58946;SDS011;44724;52.332;4.978;2022-09-09T08:12:28;9.23;;;4.50;;
58946;SDS011;44724;52.332;4.978;2022-09-09T08:14:55;7.50;;;4.28;;
58946;SDS011;44724;52.332;4.978;2022-09-09T08:17:21;8.50;;;4.13;;
58946;SDS011;44724;52.332;4.978;2022-09-09T08:19:47;8.13;;;4.18;;
58946;SDS011;44724;52.332;4.978;2022-09-09T08:22:17;9.35;;;4.60;;
58946;SDS011;44724;52.332;4.978;2022-09-09T08:24:43;8.30;;;4.47;;
58946;SDS011;44724;52.332;4.978;2022-09-09T08:27:08;10.88;;;4.75;;
58946;SDS011;44724;52.332;4.978;2022-09-09T08:29:35;7.97;;;3.88;;
58946;SDS011;44724;52.332;4.978;2022-09-09T08:32:01;16.48;;;5.00;;
58946;SDS011;44724;52.332;4.978;2022-09-09T08:34:27;6.63;;;3.70;;
58946;SDS011;44724;52.332;4.978;2022-09-09T08:36:55;8.57;;;3.58;;
58946;SDS011;44724;52.332;4.978;2022-09-09T08:39:27;8.52;;;4.32;;
58946;SDS011;44724;52.332;4.978;2022-09-09T08:44:49;5.55;;;2.97;;
58946;SDS011;44724;52.332;4.978;2022-09-09T08:47:48;6.82;;;2.83;;
58946;SDS011;44724;52.332;4.978;2022-09-09T08:53:26;7.10;;;3.40;;
58946;SDS011;44724;52.332;4.978;2022-09-09T08:56:01;4.80;;;3.40;;
58946;SDS011;44724;52.332;4.978;2022-09-09T08:58:46;11.38;;;4.03;;
58946;SDS011;44724;52.332;4.978;2022-09-09T09:07:02;6.93;;;3.30;;
58946;SDS011;44724;52.332;4.978;2022-09-09T09:09:46;6.07;;;3.45;;
58946;SDS011;44724;52.332;4.978;2022-09-09T09:12:21;8.02;;;3.25;;
58946;SDS011;44724;52.332;4.978;2022-09-09T09:14:50;4.90;;;2.78;;
58946;SDS011;44724;52.332;4.978;2022-09-09T09:17:20;5.65;;;3.47;;
58946;SDS011;44724;52.332;4.978;2022-09-09T09:19:48;6.43;;;3.75;;
58946;SDS011;44724;52.332;4.978;2022-09-09T09:24:55;7.10;;;2.80;;
58946;SDS011;44724;52.332;4.978;2022-09-09T09:29:58;6.35;;;3.65;;
58946;SDS011;44724;52.332;4.978;2022-09-09T09:32:26;6.90;;;3.25;;
58946;SDS011;44724;52.332;4.978;2022-09-09T09:34:56;8.48;;;3.08;;
58946;SDS011;44724;52.332;4.978;2022-09-09T09:37:28;10.43;;;3.75;;
58946;SDS011;44724;52.332;4.978;2022-09-09T09:40:12;5.47;;;3.25;;
58946;SDS011;44724;52.332;4.978;2022-09-09T09:42:49;6.75;;;2.80;;
58946;SDS011;44724;52.332;4.978;2022-09-09T09:45:33;8.77;;;3.22;;
58946;SDS011;44724;52.332;4.978;2022-09-09T09:48:03;4.50;;;2.58;;
58946;SDS011;44724;52.332;4.978;2022-09-09T09:50:32;6.55;;;2.85;;
58946;SDS011;44724;52.332;4.978;2022-09-09T09:53:05;5.90;;;3.00;;
58946;SDS011;44724;52.332;4.978;2022-09-09T09:55:46;5.38;;;2.30;;
58946;SDS011;44724;52.332;4.978;2022-09-09T09:58:18;7.60;;;4.00;;
58946;SDS011;44724;52.332;4.978;2022-09-09T10:00:47;3.53;;;2.00;;
58946;SDS011;44724;52.332;4.978;2022-09-09T10:03:38;7.57;;;3.22;;
58946;SDS011;44724;52.332;4.978;2022-09-09T10:06:05;4.50;;;2.45;;
58946;SDS011;44724;52.332;4.978;2022-09-09T10:08:33;6.35;;;3.10;;
58946;SDS011;44724;52.332;4.978;2022-09-09T10:18:58;8.70;;;2.22;;
58946;SDS011;44724;52.332;4.978;2022-09-09T10:22:15;7.38;;;2.53;;
58946;SDS011;44724;52.332;4.978;2022-09-09T10:25:12;7.30;;;2.95;;
58946;SDS011;44724;52.332;4.978;2022-09-09T10:27:47;5.00;;;2.00;;
58946;SDS011;44724;52.332;4.978;2022-09-09T10:30:45;9.23;;;2.70;;
58946;SDS011;44724;52.332;4.978;2022-09-09T10:36:05;8.25;;;2.25;;
58946;SDS011;44724;52.332;4.978;2022-09-09T10:38:39;5.32;;;2.22;;
58946;SDS011;44724;52.332;4.978;2022-09-09T10:47:00;7.43;;;2.25;;
58946;SDS011;44724;52.332;4.978;2022-09-09T10:49:34;2.75;;;1.88;;
58946;SDS011;44724;52.332;4.978;2022-09-09T10:55:10;6.38;;;2.10;;
58946;SDS011;44724;52.332;4.978;2022-09-09T10:57:44;5.20;;;1.70;;
58946;SDS011;44724;52.332;4.978;2022-09-09T11:02:39;7.97;;;2.20;;
58946;SDS011;44724;52.332;4.978;2022-09-09T11:05:14;4.38;;;2.08;;
58946;SDS011;44724;52.332;4.978;2022-09-09T11:07:48;3.17;;;1.98;;
58946;SDS011;44724;52.332;4.978;2022-09-09T11:10:23;5.55;;;2.47;;
58946;SDS011;44724;52.332;4.978;2022-09-09T11:12:57;2.83;;;1.98;;
58946;SDS011;44724;52.332;4.978;2022-09-09T11:15:31;6.35;;;2.35;;
58946;SDS011;44724;52.332;4.978;2022-09-09T11:18:06;3.67;;;1.90;;
58946;SDS011;44724;52.332;4.978;2022-09-09T11:20:37;4.47;;;2.50;;
58946;SDS011;44724;52.332;4.978;2022-09-09T11:23:09;2.70;;;1.45;;
58946;SDS011;44724;52.332;4.978;2022-09-09T11:25:45;8.32;;;2.00;;
58946;SDS011;44724;52.332;4.978;2022-09-09T11:28:24;4.35;;;1.88;;
58946;SDS011;44724;52.332;4.978;2022-09-09T11:31:07;12.73;;;3.00;;
58946;SDS011;44724;52.332;4.978;2022-09-09T11:36:36;9.07;;;1.83;;
58946;SDS011;44724;52.332;4.978;2022-09-09T11:44:39;8.73;;;2.28;;
58946;SDS011;44724;52.332;4.978;2022-09-09T11:47:25;4.22;;;1.77;;
58946;SDS011;44724;52.332;4.978;2022-09-09T11:52:43;5.68;;;2.00;;
58946;SDS011;44724;52.332;4.978;2022-09-09T11:58:02;1.25;;;1.10;;
58946;SDS011;44724;52.332;4.978;2022-09-09T12:00:36;1.48;;;1.38;;
58946;SDS011;44724;52.332;4.978;2022-09-09T12:03:05;2.58;;;1.90;;
58946;SDS011;44724;52.332;4.978;2022-09-09T12:05:51;3.10;;;1.35;;
58946;SDS011;44724;52.332;4.978;2022-09-09T12:08:19;2.50;;;1.20;;
58946;SDS011;44724;52.332;4.978;2022-09-09T12:10:56;4.68;;;2.00;;
58946;SDS011;44724;52.332;4.978;2022-09-09T12:13:25;4.88;;;1.90;;
58946;SDS011;44724;52.332;4.978;2022-09-09T12:15:52;3.60;;;1.65;;
58946;SDS011;44724;52.332;4.978;2022-09-09T12:18:23;2.70;;;1.80;;
58946;SDS011;44724;52.332;4.978;2022-09-09T12:24:02;4.57;;;2.30;;
58946;SDS011;44724;52.332;4.978;2022-09-09T12:26:35;4.03;;;1.70;;
58946;SDS011;44724;52.332;4.978;2022-09-09T12:31:51;3.78;;;2.00;;
58946;SDS011;44724;52.332;4.978;2022-09-09T12:37:27;7.82;;;2.67;;
58946;SDS011;44724;52.332;4.978;2022-09-09T12:39:59;3.85;;;2.67;;
58946;SDS011;44724;52.332;4.978;2022-09-09T12:42:27;4.65;;;2.00;;
58946;SDS011;44724;52.332;4.978;2022-09-09T12:44:54;3.38;;;2.38;;
58946;SDS011;44724;52.332;4.978;2022-09-09T12:47:26;3.80;;;2.85;;
58946;SDS011;44724;52.332;4.978;2022-09-09T12:50:02;3.72;;;2.75;;
58946;SDS011;44724;52.332;4.978;2022-09-09T12:52:32;6.40;;;2.75;;
58946;SDS011;44724;52.332;4.978;2022-09-09T12:55:03;4.25;;;2.65;;
58946;SDS011;44724;52.332;4.978;2022-09-09T12:57:37;6.72;;;2.90;;
58946;SDS011;44724;52.332;4.978;2022-09-09T13:00:10;6.88;;;2.75;;
58946;SDS011;44724;52.332;4.978;2022-09-09T13:02:48;6.45;;;3.28;;
58946;SDS011;44724;52.332;4.978;2022-09-09T13:05:22;4.38;;;3.00;;
58946;SDS011;44724;52.332;4.978;2022-09-09T13:08:00;5.03;;;3.47;;
58946;SDS011;44724;52.332;4.978;2022-09-09T13:10:28;10.75;;;4.00;;
58946;SDS011;44724;52.332;4.978;2022-09-09T13:12:58;3.65;;;3.03;;
58946;SDS011;44724;52.332;4.978;2022-09-09T13:15:26;5.55;;;3.88;;
58946;SDS011;44724;52.332;4.978;2022-09-09T13:17:57;8.50;;;5.03;;
58946;SDS011;44724;52.332;4.978;2022-09-09T13:20:29;6.05;;;4.50;;
58946;SDS011;44724;52.332;4.978;2022-09-09T13:22:56;8.00;;;4.47;;
58946;SDS011;44724;52.332;4.978;2022-09-09T13:25:26;5.15;;;3.90;;
58946;SDS011;44724;52.332;4.978;2022-09-09T13:28:03;3.97;;;2.50;;
58946;SDS011;44724;52.332;4.978;2022-09-09T13:30:31;4.78;;;3.25;;
58946;SDS011;44724;52.332;4.978;2022-09-09T13:35:59;4.72;;;2.88;;
58946;SDS011;44724;52.332;4.978;2022-09-09T13:38:28;4.28;;;3.83;;
58946;SDS011;44724;52.332;4.978;2022-09-09T13:43:22;6.13;;;3.88;;
58946;SDS011;44724;52.332;4.978;2022-09-09T13:45:57;5.45;;;3.95;;
58946;SDS011;44724;52.332;4.978;2022-09-09T13:48:24;4.95;;;3.97;;
58946;SDS011;44724;52.332;4.978;2022-09-09T13:50:57;4.05;;;3.65;;
58946;SDS011;44724;52.332;4.978;2022-09-09T13:53:29;5.25;;;3.08;;
58946;SDS011;44724;52.332;4.978;2022-09-09T13:55:55;8.18;;;3.92;;
58946;SDS011;44724;52.332;4.978;2022-09-09T13:58:22;9.10;;;4.38;;
58946;SDS011;44724;52.332;4.978;2022-09-09T14:00:54;6.50;;;4.13;;
58946;SDS011;44724;52.332;4.978;2022-09-09T14:03:19;7.40;;;4.38;;
58946;SDS011;44724;52.332;4.978;2022-09-09T14:05:45;5.60;;;4.40;;
58946;SDS011;44724;52.332;4.978;2022-09-09T14:08:16;6.30;;;4.28;;
58946;SDS011;44724;52.332;4.978;2022-09-09T14:10:50;7.35;;;4.55;;
58946;SDS011;44724;52.332;4.978;2022-09-09T14:13:17;7.82;;;4.68;;
58946;SDS011;44724;52.332;4.978;2022-09-09T14:15:42;5.30;;;4.38;;
58946;SDS011;44724;52.332;4.978;2022-09-09T14:18:11;10.23;;;4.70;;
58946;SDS011;44724;52.332;4.978;2022-09-09T14:20:38;6.55;;;3.70;;
58946;SDS011;44724;52.332;4.978;2022-09-09T14:23:03;3.45;;;2.60;;
58946;SDS011;44724;52.332;4.978;2022-09-09T14:25:29;3.80;;;3.38;;
58946;SDS011;44724;52.332;4.978;2022-09-09T14:27:54;5.95;;;3.38;;
58946;SDS011;44724;52.332;4.978;2022-09-09T14:30:21;5.82;;;3.15;;
58946;SDS011;44724;52.332;4.978;2022-09-09T14:32:46;4.45;;;2.78;;
58946;SDS011;44724;52.332;4.978;2022-09-09T14:35:15;7.85;;;3.78;;
58946;SDS011;44724;52.332;4.978;2022-09-09T14:37:42;4.93;;;3.33;;
58946;SDS011;44724;52.332;4.978;2022-09-09T14:40:08;7.25;;;3.03;;
58946;SDS011;44724;52.332;4.978;2022-09-09T14:42:34;5.45;;;3.20;;
58946;SDS011;44724;52.332;4.978;2022-09-09T14:45:02;3.10;;;2.80;;
58946;SDS011;44724;52.332;4.978;2022-09-09T14:47:27;4.93;;;3.10;;
58946;SDS011;44724;52.332;4.978;2022-09-09T14:49:54;4.78;;;3.25;;
58946;SDS011;44724;52.332;4.978;2022-09-09T14:52:20;3.95;;;2.72;;
58946;SDS011;44724;52.332;4.978;2022-09-09T14:54:45;6.15;;;3.30;;
58946;SDS011;44724;52.332;4.978;2022-09-09T14:57:10;17.02;;;3.10;;
58946;SDS011;44724;52.332;4.978;2022-09-09T14:59:36;4.72;;;2.72;;
58946;SDS011;44724;52.332;4.978;2022-09-09T15:02:01;1.95;;;1.83;;
58946;SDS011;44724;52.332;4.978;2022-09-09T15:04:30;3.88;;;1.80;;
58946;SDS011;44724;52.332;4.978;2022-09-09T15:06:55;2.97;;;1.80;;
58946;SDS011;44724;52.332;4.978;2022-09-09T15:09:20;2.17;;;1.67;;
58946;SDS011;44724;52.332;4.978;2022-09-09T15:11:46;3.28;;;1.63;;
58946;SDS011;44724;52.332;4.978;2022-09-09T15:14:11;2.47;;;1.38;;
58946;SDS011;44724;52.332;4.978;2022-09-09T15:16:37;3.05;;;1.58;;
58946;SDS011;44724;52.332;4.978;2022-09-09T15:19:06;3.30;;;1.60;;
58946;SDS011;44724;52.332;4.978;2022-09-09T15:21:32;1.63;;;1.35;;
58946;SDS011;44724;52.332;4.978;2022-09-09T15:23:59;2.08;;;1.40;;
58946;SDS011;44724;52.332;4.978;2022-09-09T15:26:25;2.22;;;1.30;;
58946;SDS011;44724;52.332;4.978;2022-09-09T15:28:52;3.50;;;1.48;;
58946;SDS011;44724;52.332;4.978;2022-09-09T15:31:22;1.98;;;1.05;;
58946;SDS011;44724;52.332;4.978;2022-09-09T15:36:19;2.90;;;1.67;;
58946;SDS011;44724;52.332;4.978;2022-09-09T15:38:47;4.05;;;1.98;;
58946;SDS011;44724;52.332;4.978;2022-09-09T15:41:13;4.25;;;1.88;;
58946;SDS011;44724;52.332;4.978;2022-09-09T15:43:43;2.63;;;1.80;;
58946;SDS011;44724;52.332;4.978;2022-09-09T15:48:45;3.42;;;1.90;;
58946;SDS011;44724;52.332;4.978;2022-09-09T15:51:10;2.20;;;1.73;;
58946;SDS011;44724;52.332;4.978;2022-09-09T15:53:36;3.00;;;1.70;;
58946;SDS011;44724;52.332;4.978;2022-09-09T15:56:04;4.55;;;1.83;;
58946;SDS011;44724;52.332;4.978;2022-09-09T15:58:33;6.45;;;4.00;;
58946;SDS011;44724;52.332;4.978;2022-09-09T16:01:04;3.20;;;1.98;;
58946;SDS011;44724;52.332;4.978;2022-09-09T16:03:34;4.28;;;2.08;;
58946;SDS011;44724;52.332;4.978;2022-09-09T16:06:00;3.20;;;2.03;;
58946;SDS011;44724;52.332;4.978;2022-09-09T16:08:31;4.95;;;2.13;;
58946;SDS011;44724;52.332;4.978;2022-09-09T16:11:03;4.68;;;2.33;;
58946;SDS011;44724;52.332;4.978;2022-09-09T16:13:34;3.80;;;2.22;;
58946;SDS011;44724;52.332;4.978;2022-09-09T16:16:04;5.28;;;2.17;;
58946;SDS011;44724;52.332;4.978;2022-09-09T16:18:34;3.72;;;2.30;;
58946;SDS011;44724;52.332;4.978;2022-09-09T16:21:01;3.05;;;2.50;;
58946;SDS011;44724;52.332;4.978;2022-09-09T16:23:28;4.50;;;2.70;;
58946;SDS011;44724;52.332;4.978;2022-09-09T16:25:54;6.60;;;3.30;;
58946;SDS011;44724;52.332;4.978;2022-09-09T16:28:20;4.55;;;2.20;;
58946;SDS011;44724;52.332;4.978;2022-09-09T16:30:46;3.67;;;2.00;;
58946;SDS011;44724;52.332;4.978;2022-09-09T16:33:11;3.97;;;2.30;;
58946;SDS011;44724;52.332;4.978;2022-09-09T16:35:40;3.78;;;2.25;;
58946;SDS011;44724;52.332;4.978;2022-09-09T16:38:06;3.97;;;2.00;;
58946;SDS011;44724;52.332;4.978;2022-09-09T16:40:34;4.57;;;1.95;;
58946;SDS011;44724;52.332;4.978;2022-09-09T16:43:00;4.57;;;1.90;;
58946;SDS011;44724;52.332;4.978;2022-09-09T16:45:26;3.30;;;1.58;;
58946;SDS011;44724;52.332;4.978;2022-09-09T16:47:52;5.47;;;1.90;;
58946;SDS011;44724;52.332;4.978;2022-09-09T16:50:18;4.03;;;1.85;;
58946;SDS011;44724;52.332;4.978;2022-09-09T16:52:43;3.22;;;2.10;;
58946;SDS011;44724;52.332;4.978;2022-09-09T16:55:08;3.95;;;1.90;;
58946;SDS011;44724;52.332;4.978;2022-09-09T16:57:34;4.10;;;2.53;;
58946;SDS011;44724;52.332;4.978;2022-09-09T17:00:03;3.55;;;1.88;;
58946;SDS011;44724;52.332;4.978;2022-09-09T17:02:31;3.72;;;2.08;;
58946;SDS011;44724;52.332;4.978;2022-09-09T17:04:56;4.70;;;1.95;;